createdAt,value
2019-05-26T00:01:51.218Z,3.80
2019-05-26T00:06:59.996Z,4.00
2019-05-26T00:12:08.851Z,4.70
2019-05-26T00:17:17.724Z,4.50
2019-05-26T00:22:26.538Z,5.40
2019-05-26T00:27:35.364Z,4.90
2019-05-26T00:32:44.131Z,5.10
2019-05-26T00:37:52.910Z,5.13
2019-05-26T00:43:01.699Z,4.80
2019-05-26T00:48:10.572Z,4.70
2019-05-26T00:53:19.288Z,4.20
2019-05-26T00:58:28.196Z,3.90
2019-05-26T01:03:37.064Z,4.23
2019-05-26T01:08:45.958Z,4.60
2019-05-26T01:13:54.657Z,4.10
2019-05-26T01:19:03.532Z,4.50
2019-05-26T01:24:12.342Z,4.40
2019-05-26T01:29:21.009Z,4.47
2019-05-26T01:34:31.067Z,4.10
2019-05-26T01:39:39.937Z,4.10
2019-05-26T01:44:48.620Z,3.97
2019-05-26T01:49:57.250Z,4.00
2019-05-26T01:55:06.064Z,4.07
2019-05-26T02:00:15.050Z,4.13
2019-05-26T02:05:23.850Z,4.30
2019-05-26T02:10:32.732Z,4.33
2019-05-26T02:15:41.410Z,4.43
2019-05-26T02:20:50.177Z,4.53
2019-05-26T02:25:58.915Z,4.80
2019-05-26T02:31:07.545Z,4.73
2019-05-26T02:36:16.246Z,5.17
2019-05-26T02:41:25.064Z,5.47
2019-05-26T02:46:33.915Z,5.83
2019-05-26T02:51:42.654Z,5.70
2019-05-26T02:56:51.389Z,5.70
2019-05-26T03:02:03.842Z,6.13
2019-05-26T03:07:09.267Z,6.40
2019-05-26T03:12:18.007Z,6.00
2019-05-26T03:17:27.099Z,6.17
2019-05-26T03:22:36.400Z,7.20
2019-05-26T03:27:45.033Z,6.47
2019-05-26T03:32:53.909Z,7.63
2019-05-26T03:38:02.774Z,7.43
2019-05-26T03:43:11.597Z,8.00
2019-05-26T03:48:20.237Z,8.10
2019-05-26T03:53:29.197Z,8.90
2019-05-26T03:58:38.612Z,9.63
2019-05-26T04:03:47.342Z,10.23
2019-05-26T04:08:56.198Z,9.90
2019-05-26T04:14:04.951Z,10.33
2019-05-26T04:19:13.662Z,10.70
2019-05-26T04:24:22.467Z,11.17
2019-05-26T04:29:31.402Z,11.70
2019-05-26T04:34:40.275Z,11.47
2019-05-26T04:39:48.961Z,12.20
2019-05-26T04:44:57.663Z,12.13
2019-05-26T04:55:22.012Z,12.50
2019-05-26T05:00:30.942Z,11.73
2019-05-26T05:05:39.672Z,13.27
2019-05-26T05:10:48.476Z,12.43
2019-05-26T05:15:57.406Z,11.97
2019-05-26T05:21:06.039Z,12.50
2019-05-26T05:26:14.811Z,12.93
2019-05-26T05:31:23.614Z,12.80
2019-05-26T05:36:32.341Z,12.53
2019-05-26T05:41:41.010Z,12.23
2019-05-26T05:46:49.796Z,12.20
2019-05-26T05:51:58.699Z,10.70
2019-05-26T05:57:07.566Z,11.43
2019-05-26T06:02:16.402Z,10.80
2019-05-26T06:07:25.241Z,10.97
2019-05-26T06:12:34.128Z,9.50
2019-05-26T06:17:42.949Z,9.67
2019-05-26T06:22:51.884Z,9.57
2019-05-26T06:28:00.963Z,10.20
2019-05-26T06:33:09.731Z,9.90
2019-05-26T06:38:18.735Z,9.80
2019-05-26T06:43:27.404Z,9.50
2019-05-26T06:48:35.986Z,9.83
2019-05-26T06:53:44.808Z,8.93
2019-05-26T06:58:53.382Z,8.80
2019-05-26T07:04:02.048Z,8.63
2019-05-26T07:09:10.960Z,7.80
2019-05-26T07:14:19.906Z,7.70
2019-05-26T07:19:28.737Z,7.67
2019-05-26T07:24:37.636Z,7.80
2019-05-26T07:29:46.489Z,6.63
2019-05-26T07:34:55.262Z,6.53
2019-05-26T07:40:04.137Z,5.70
2019-05-26T07:45:12.976Z,5.83
2019-05-26T07:50:23.277Z,6.30
2019-05-26T07:55:31.994Z,6.03
2019-05-26T08:00:40.758Z,6.57
2019-05-26T08:05:49.448Z,5.77
2019-05-26T08:10:58.196Z,5.57
2019-05-26T08:16:07.020Z,6.30
2019-05-26T08:21:15.794Z,5.23
2019-05-26T08:26:24.659Z,6.00
2019-05-26T08:31:33.381Z,5.80
2019-05-26T08:36:42.070Z,5.53
2019-05-26T08:41:50.828Z,6.10
2019-05-26T08:46:59.566Z,5.60
2019-05-26T08:52:08.426Z,5.97
2019-05-26T08:57:17.289Z,5.17
2019-05-26T09:02:26.102Z,5.63
2019-05-26T09:07:34.925Z,5.53
2019-05-26T09:12:43.600Z,5.60
2019-05-26T09:17:52.387Z,5.20
2019-05-26T09:23:01.294Z,4.47
2019-05-26T09:28:10.039Z,3.87
2019-05-26T09:33:18.937Z,4.10
2019-05-26T09:38:27.704Z,3.70
2019-05-26T09:43:36.533Z,3.53
2019-05-26T09:48:45.191Z,3.57
2019-05-26T09:54:01.838Z,3.87
2019-05-26T09:59:02.701Z,3.13
2019-05-26T10:04:11.535Z,3.50
2019-05-26T10:09:20.125Z,2.90
2019-05-26T10:14:28.961Z,2.97
2019-05-26T10:19:37.786Z,2.73
2019-05-26T10:24:46.469Z,2.63
2019-05-26T10:29:55.258Z,2.57
2019-05-26T10:35:05.073Z,2.83
2019-05-26T10:40:14.187Z,2.70
2019-05-26T10:45:23.037Z,2.70
2019-05-26T10:50:31.754Z,2.90
2019-05-26T10:55:40.633Z,3.47
2019-05-26T11:00:49.447Z,2.90
2019-05-26T11:05:58.364Z,2.80
2019-05-26T11:11:07.016Z,2.40
2019-05-26T11:16:15.829Z,2.27
2019-05-26T11:21:24.615Z,2.20
2019-05-26T11:26:33.503Z,2.70
2019-05-26T11:31:42.141Z,2.40
2019-05-26T11:36:50.844Z,2.30
2019-05-26T11:42:12.238Z,2.03
2019-05-26T11:47:07.981Z,1.93
2019-05-26T11:52:20.083Z,2.43
2019-05-26T11:57:25.301Z,2.20
2019-05-26T12:02:34.029Z,2.20
2019-05-26T12:07:42.773Z,2.00
2019-05-26T12:12:51.292Z,2.00
2019-05-26T12:17:59.790Z,2.30
2019-05-26T12:23:08.335Z,2.50
2019-05-26T12:28:16.953Z,2.03
2019-05-26T12:33:25.475Z,2.30
2019-05-26T12:38:35.299Z,1.80
2019-05-26T12:43:43.961Z,2.00
2019-05-26T12:48:52.722Z,2.10
2019-05-26T12:54:01.475Z,2.33
2019-05-26T12:59:10.335Z,2.27
2019-05-26T13:04:19.132Z,2.07
2019-05-26T13:09:27.988Z,1.83
2019-05-26T13:14:36.745Z,2.40
2019-05-26T13:19:45.427Z,2.20
2019-05-26T13:24:54.336Z,2.20
2019-05-26T13:30:03.548Z,2.30
2019-05-26T13:35:12.545Z,2.17
2019-05-26T13:40:21.480Z,2.20
2019-05-26T13:45:33.619Z,2.50
2019-05-26T13:50:39.019Z,2.60
2019-05-26T13:55:47.916Z,2.30
2019-05-26T14:00:56.875Z,2.30
2019-05-26T14:06:05.729Z,2.00
2019-05-26T14:11:14.434Z,2.30
2019-05-26T14:16:23.428Z,1.93
2019-05-26T14:21:32.333Z,2.20
2019-05-26T14:26:41.078Z,1.97
2019-05-26T14:31:52.767Z,1.90
2019-05-26T14:36:58.802Z,1.97
2019-05-26T14:42:07.623Z,2.10
2019-05-26T14:47:16.217Z,1.70
2019-05-26T14:52:25.077Z,1.90
2019-05-26T14:57:34.008Z,2.47
2019-05-26T15:02:42.810Z,2.10
2019-05-26T15:07:51.574Z,1.90
2019-05-26T15:13:00.461Z,1.80
2019-05-26T15:18:09.430Z,1.70
2019-05-26T15:23:18.159Z,1.87
2019-05-26T15:28:27.098Z,2.00
2019-05-26T15:33:35.821Z,2.20
2019-05-26T15:38:44.814Z,2.33
2019-05-26T15:43:53.760Z,1.93
2019-05-26T15:49:02.539Z,2.10
2019-05-26T15:54:11.667Z,2.40
2019-05-26T15:59:20.567Z,2.10
2019-05-26T16:04:29.221Z,2.07
2019-05-26T16:09:38.119Z,2.07
2019-05-26T16:14:47.011Z,2.10
2019-05-26T16:19:55.750Z,2.03
2019-05-26T16:25:04.767Z,1.90
2019-05-26T16:30:13.472Z,2.27
2019-05-26T16:35:22.231Z,2.33
2019-05-26T16:40:31.040Z,2.23
2019-05-26T16:45:54.956Z,2.30
2019-05-26T16:50:48.743Z,2.00
2019-05-26T16:55:57.975Z,2.10
2019-05-26T17:01:06.789Z,2.57
2019-05-26T17:06:15.701Z,2.10
2019-05-26T17:11:24.678Z,1.97
2019-05-26T17:16:33.679Z,2.10
2019-05-26T17:21:43.250Z,2.10
2019-05-26T17:26:51.994Z,2.20
2019-05-26T17:32:00.929Z,2.13
2019-05-26T17:37:09.838Z,2.30
2019-05-26T17:42:19.232Z,2.47
2019-05-26T17:47:30.777Z,2.33
2019-05-26T17:52:37.428Z,2.40
2019-05-26T17:57:48.155Z,2.53
2019-05-26T18:03:00.874Z,2.10
2019-05-26T18:08:09.708Z,1.97
2019-05-26T18:13:18.609Z,2.10
2019-05-26T18:18:27.282Z,2.30
2019-05-26T18:23:36.279Z,2.60
2019-05-26T18:28:45.130Z,2.60
2019-05-26T18:33:54.210Z,2.73
2019-05-26T18:39:03.965Z,2.37
2019-05-26T18:44:13.586Z,2.90
2019-05-26T18:49:23.207Z,2.70
2019-05-26T18:54:33.980Z,2.70
2019-05-26T18:59:43.770Z,3.67
2019-05-26T19:04:54.875Z,3.13
2019-05-26T19:10:06.176Z,4.30
2019-05-26T19:15:19.481Z,3.60
2019-05-26T19:20:33.377Z,4.77
2019-05-26T19:25:42.405Z,4.33
2019-05-26T19:30:51.318Z,5.20
2019-05-26T19:36:00.274Z,6.53
2019-05-26T19:41:09.414Z,3.13
2019-05-26T19:46:18.226Z,3.70
2019-05-26T19:51:27.236Z,3.20
2019-05-26T19:56:36.314Z,2.90
2019-05-26T20:01:45.032Z,3.50
2019-05-26T20:06:53.972Z,3.13
2019-05-26T20:12:02.881Z,3.10
2019-05-26T20:17:11.798Z,3.27
2019-05-26T20:22:24.312Z,3.53
2019-05-26T20:27:29.636Z,3.70
2019-05-26T20:32:38.492Z,4.37
2019-05-26T20:37:47.227Z,3.90
2019-05-26T20:42:56.220Z,3.43
2019-05-26T20:48:04.946Z,3.90
2019-05-26T20:53:13.824Z,3.97
2019-05-26T20:58:22.664Z,4.27
2019-05-26T21:03:31.356Z,3.90
2019-05-26T21:08:40.320Z,3.90
2019-05-26T21:13:49.053Z,3.90
2019-05-26T21:18:57.597Z,3.80
2019-05-26T21:24:06.260Z,4.00
2019-05-26T21:29:15.253Z,4.10
2019-05-26T21:34:24.148Z,3.60
2019-05-26T21:39:33.017Z,3.83
2019-05-26T21:44:41.985Z,4.30
2019-05-26T21:49:50.867Z,3.73
2019-05-26T21:54:59.796Z,4.60
2019-05-26T22:00:08.807Z,4.10
2019-05-26T22:05:18.152Z,3.67
2019-05-26T22:10:26.840Z,3.47
2019-05-26T22:15:35.530Z,4.17
2019-05-26T22:20:44.663Z,4.00
2019-05-26T22:25:53.491Z,4.23
2019-05-26T22:31:02.325Z,4.40
2019-05-26T22:36:11.124Z,4.23
2019-05-26T22:41:20.015Z,3.93
2019-05-26T22:46:28.740Z,4.10
2019-05-26T22:51:37.634Z,4.23
2019-05-26T22:56:46.308Z,4.03
2019-05-26T23:01:54.974Z,3.80
2019-05-26T23:07:03.950Z,3.90
2019-05-26T23:12:12.694Z,3.93
2019-05-26T23:17:22.985Z,4.20
2019-05-26T23:22:31.855Z,3.80
2019-05-26T23:27:40.666Z,4.50
2019-05-26T23:32:49.578Z,4.40
2019-05-26T23:37:58.268Z,4.20
2019-05-26T23:43:07.086Z,4.40
2019-05-26T23:48:15.766Z,4.10
2019-05-26T23:53:24.519Z,4.20
2019-05-26T23:58:33.392Z,3.93
